sensor_id;sensor_type;location;lat;lon;timestamp;pressure;altitude;pressure_sealevel;temperature;humidity
7962;BME280;4026;43.652;24.906;2023-01-29T00:01:33;99333.84;;;0.54;100.00
7962;BME280;4026;43.652;24.906;2023-01-29T00:04:00;99332.75;;;0.32;100.00
7962;BME280;4026;43.652;24.906;2023-01-29T00:06:27;99336.06;;;0.35;100.00
7962;BME280;4026;43.652;24.906;2023-01-29T00:08:53;99338.84;;;0.25;100.00
7962;BME280;4026;43.652;24.906;2023-01-29T00:11:20;99339.91;;;0.14;100.00
7962;BME280;4026;43.652;24.906;2023-01-29T00:13:48;99340.22;;;0.35;100.00
7962;BME280;4026;43.652;24.906;2023-01-29T00:16:15;99338.19;;;0.18;100.00
7962;BME280;4026;43.652;24.906;2023-01-29T00:18:44;99338.75;;;0.28;100.00
7962;BME280;4026;43.652;24.906;2023-01-29T00:21:11;99342.28;;;0.53;100.00
7962;BME280;4026;43.652;24.906;2023-01-29T00:23:38;99342.81;;;0.64;100.00
7962;BME280;4026;43.652;24.906;2023-01-29T00:26:07;99352.34;;;0.83;100.00
7962;BME280;4026;43.652;24.906;2023-01-29T00:28:34;99348.47;;;0.71;100.00
7962;BME280;4026;43.652;24.906;2023-01-29T00:31:06;99369.56;;;0.36;100.00
7962;BME280;4026;43.652;24.906;2023-01-29T00:33:33;99359.69;;;0.28;100.00
7962;BME280;4026;43.652;24.906;2023-01-29T00:36:03;99351.72;;;0.45;100.00
7962;BME280;4026;43.652;24.906;2023-01-29T00:38:31;99351.63;;;0.48;100.00
7962;BME280;4026;43.652;24.906;2023-01-29T00:41:04;99356.75;;;0.75;100.00
7962;BME280;4026;43.652;24.906;2023-01-29T00:43:49;99364.94;;;0.52;100.00
7962;BME280;4026;43.652;24.906;2023-01-29T00:46:33;99363.81;;;0.31;100.00
7962;BME280;4026;43.652;24.906;2023-01-29T00:49:00;99358.41;;;0.13;100.00
7962;BME280;4026;43.652;24.906;2023-01-29T00:51:28;99354.16;;;0.15;100.00
7962;BME280;4026;43.652;24.906;2023-01-29T00:53:55;99354.09;;;0.18;100.00
7962;BME280;4026;43.652;24.906;2023-01-29T00:56:22;99350.94;;;0.10;100.00
7962;BME280;4026;43.652;24.906;2023-01-29T00:58:49;99353.56;;;0.06;100.00
7962;BME280;4026;43.652;24.906;2023-01-29T01:01:17;99351.59;;;0.17;100.00
7962;BME280;4026;43.652;24.906;2023-01-29T01:04:04;99355.56;;;0.26;100.00
7962;BME280;4026;43.652;24.906;2023-01-29T01:06:32;99353.84;;;0.28;100.00
7962;BME280;4026;43.652;24.906;2023-01-29T01:08:59;99362.00;;;0.36;100.00
7962;BME280;4026;43.652;24.906;2023-01-29T01:11:43;99353.69;;;0.34;100.00
7962;BME280;4026;43.652;24.906;2023-01-29T01:14:10;99357.44;;;0.17;100.00
7962;BME280;4026;43.652;24.906;2023-01-29T01:16:37;99353.69;;;0.65;100.00
7962;BME280;4026;43.652;24.906;2023-01-29T01:19:04;99363.09;;;0.58;100.00
7962;BME280;4026;43.652;24.906;2023-01-29T01:21:32;99363.16;;;0.55;100.00
7962;BME280;4026;43.652;24.906;2023-01-29T01:23:59;99372.53;;;0.50;100.00
7962;BME280;4026;43.652;24.906;2023-01-29T01:26:26;99370.88;;;0.16;100.00
7962;BME280;4026;43.652;24.906;2023-01-29T01:28:53;99367.28;;;0.27;100.00
7962;BME280;4026;43.652;24.906;2023-01-29T01:31:20;99373.38;;;0.49;100.00
7962;BME280;4026;43.652;24.906;2023-01-29T01:33:46;99379.75;;;0.62;100.00
7962;BME280;4026;43.652;24.906;2023-01-29T01:36:16;99372.75;;;0.74;100.00
7962;BME280;4026;43.652;24.906;2023-01-29T01:38:44;99375.38;;;0.38;100.00
7962;BME280;4026;43.652;24.906;2023-01-29T01:41:12;99377.03;;;0.39;100.00
7962;BME280;4026;43.652;24.906;2023-01-29T01:43:50;99376.97;;;0.40;100.00
7962;BME280;4026;43.652;24.906;2023-01-29T01:46:18;99382.69;;;0.47;100.00
7962;BME280;4026;43.652;24.906;2023-01-29T01:48:49;99376.78;;;0.48;100.00
7962;BME280;4026;43.652;24.906;2023-01-29T01:51:17;99384.00;;;0.60;100.00
7962;BME280;4026;43.652;24.906;2023-01-29T01:53:50;99382.22;;;0.33;100.00
7962;BME280;4026;43.652;24.906;2023-01-29T01:56:22;99376.56;;;0.25;100.00
7962;BME280;4026;43.652;24.906;2023-01-29T01:58:54;99374.50;;;0.06;100.00
7962;BME280;4026;43.652;24.906;2023-01-29T02:01:22;99369.47;;;0.06;100.00
7962;BME280;4026;43.652;24.906;2023-01-29T02:03:55;99375.91;;;0.16;100.00
7962;BME280;4026;43.652;24.906;2023-01-29T02:06:42;99371.16;;;0.06;100.00
7962;BME280;4026;43.652;24.906;2023-01-29T02:09:33;99361.63;;;0.18;100.00
7962;BME280;4026;43.652;24.906;2023-01-29T02:12:01;99368.19;;;0.24;100.00
7962;BME280;4026;43.652;24.906;2023-01-29T02:14:29;99369.09;;;0.21;100.00
7962;BME280;4026;43.652;24.906;2023-01-29T02:16:56;99373.72;;;0.37;100.00
7962;BME280;4026;43.652;24.906;2023-01-29T02:19:42;99380.00;;;0.53;100.00
7962;BME280;4026;43.652;24.906;2023-01-29T02:22:26;99375.69;;;0.26;100.00
7962;BME280;4026;43.652;24.906;2023-01-29T02:25:03;99376.97;;;0.72;100.00
7962;BME280;4026;43.652;24.906;2023-01-29T02:27:57;99385.13;;;0.50;100.00
7962;BME280;4026;43.652;24.906;2023-01-29T02:30:27;99389.72;;;0.65;100.00
7962;BME280;4026;43.652;24.906;2023-01-29T02:33:00;99387.75;;;0.45;100.00
7962;BME280;4026;43.652;24.906;2023-01-29T02:35:38;99393.75;;;0.40;100.00
7962;BME280;4026;43.652;24.906;2023-01-29T02:38:12;99400.22;;;0.50;100.00
7962;BME280;4026;43.652;24.906;2023-01-29T02:40:45;99403.81;;;0.40;100.00
7962;BME280;4026;43.652;24.906;2023-01-29T02:43:24;99402.28;;;0.34;100.00
7962;BME280;4026;43.652;24.906;2023-01-29T02:45:59;99406.75;;;0.23;100.00
7962;BME280;4026;43.652;24.906;2023-01-29T02:48:37;99403.91;;;0.37;100.00
7962;BME280;4026;43.652;24.906;2023-01-29T02:51:09;99404.53;;;0.12;100.00
7962;BME280;4026;43.652;24.906;2023-01-29T02:53:44;99404.69;;;0.06;100.00
7962;BME280;4026;43.652;24.906;2023-01-29T02:56:18;99403.88;;;0.04;100.00
7962;BME280;4026;43.652;24.906;2023-01-29T02:58:52;99405.59;;;0.02;100.00
7962;BME280;4026;43.652;24.906;2023-01-29T03:01:29;99409.56;;;0.12;100.00
7962;BME280;4026;43.652;24.906;2023-01-29T03:04:01;99398.59;;;0.15;100.00
7962;BME280;4026;43.652;24.906;2023-01-29T03:06:32;99403.50;;;0.19;100.00
7962;BME280;4026;43.652;24.906;2023-01-29T03:09:04;99408.94;;;0.03;100.00
7962;BME280;4026;43.652;24.906;2023-01-29T03:11:36;99413.22;;;-0.01;100.00
7962;BME280;4026;43.652;24.906;2023-01-29T03:14:09;99409.22;;;-0.10;100.00
7962;BME280;4026;43.652;24.906;2023-01-29T03:16:39;99412.91;;;0.11;100.00
7962;BME280;4026;43.652;24.906;2023-01-29T03:19:11;99403.88;;;0.04;100.00
7962;BME280;4026;43.652;24.906;2023-01-29T03:21:43;99408.19;;;-0.01;100.00
7962;BME280;4026;43.652;24.906;2023-01-29T03:24:33;99414.59;;;0.12;100.00
7962;BME280;4026;43.652;24.906;2023-01-29T03:27:21;99412.56;;;0.27;100.00
7962;BME280;4026;43.652;24.906;2023-01-29T03:30:10;99415.94;;;0.58;100.00
7962;BME280;4026;43.652;24.906;2023-01-29T03:32:58;99423.44;;;0.27;100.00
7962;BME280;4026;43.652;24.906;2023-01-29T03:35:28;99424.25;;;0.28;100.00
7962;BME280;4026;43.652;24.906;2023-01-29T03:38:01;99422.59;;;0.27;100.00
7962;BME280;4026;43.652;24.906;2023-01-29T03:40:35;99427.81;;;0.52;100.00
7962;BME280;4026;43.652;24.906;2023-01-29T03:43:10;99428.88;;;0.43;100.00
7962;BME280;4026;43.652;24.906;2023-01-29T03:45:51;99421.97;;;0.51;100.00
7962;BME280;4026;43.652;24.906;2023-01-29T03:48:28;99428.19;;;0.71;100.00
7962;BME280;4026;43.652;24.906;2023-01-29T03:51:02;99428.13;;;0.72;100.00
7962;BME280;4026;43.652;24.906;2023-01-29T03:53:41;99432.59;;;0.62;100.00
7962;BME280;4026;43.652;24.906;2023-01-29T03:56:20;99428.44;;;0.61;100.00
7962;BME280;4026;43.652;24.906;2023-01-29T03:58:54;99424.13;;;0.65;100.00
7962;BME280;4026;43.652;24.906;2023-01-29T04:01:30;99429.97;;;0.67;100.00
7962;BME280;4026;43.652;24.906;2023-01-29T04:04:03;99435.78;;;1.00;100.00
7962;BME280;4026;43.652;24.906;2023-01-29T04:06:35;99437.66;;;0.92;100.00
7962;BME280;4026;43.652;24.906;2023-01-29T04:09:05;99435.59;;;0.75;100.00
7962;BME280;4026;43.652;24.906;2023-01-29T04:11:37;99438.00;;;0.80;100.00
7962;BME280;4026;43.652;24.906;2023-01-29T04:14:07;99447.56;;;0.98;100.00
7962;BME280;4026;43.652;24.906;2023-01-29T04:16:38;99444.69;;;0.81;100.00
7962;BME280;4026;43.652;24.906;2023-01-29T04:19:07;99444.69;;;0.81;100.00
7962;BME280;4026;43.652;24.906;2023-01-29T04:21:34;99450.00;;;1.01;100.00
7962;BME280;4026;43.652;24.906;2023-01-29T04:24:02;99452.59;;;0.98;100.00
7962;BME280;4026;43.652;24.906;2023-01-29T04:26:41;99455.38;;;1.19;100.00
7962;BME280;4026;43.652;24.906;2023-01-29T04:29:24;99458.34;;;1.33;100.00
7962;BME280;4026;43.652;24.906;2023-01-29T04:32:00;99462.94;;;1.19;100.00
7962;BME280;4026;43.652;24.906;2023-01-29T04:34:37;99462.63;;;1.31;100.00
7962;BME280;4026;43.652;24.906;2023-01-29T04:37:13;99460.84;;;1.34;100.00
7962;BME280;4026;43.652;24.906;2023-01-29T04:39:47;99467.59;;;1.32;100.00
7962;BME280;4026;43.652;24.906;2023-01-29T04:42:21;99473.09;;;1.45;100.00
7962;BME280;4026;43.652;24.906;2023-01-29T04:44:58;99475.69;;;1.44;100.00
7962;BME280;4026;43.652;24.906;2023-01-29T04:47:32;99488.22;;;1.45;100.00
7962;BME280;4026;43.652;24.906;2023-01-29T04:50:07;99483.97;;;1.47;100.00
7962;BME280;4026;43.652;24.906;2023-01-29T04:52:44;99496.41;;;1.53;100.00
7962;BME280;4026;43.652;24.906;2023-01-29T04:55:18;99509.31;;;1.43;100.00
7962;BME280;4026;43.652;24.906;2023-01-29T04:57:51;99501.59;;;1.47;100.00
7962;BME280;4026;43.652;24.906;2023-01-29T05:00:21;99501.97;;;1.35;100.00
7962;BME280;4026;43.652;24.906;2023-01-29T05:02:53;99510.06;;;1.46;100.00
7962;BME280;4026;43.652;24.906;2023-01-29T05:05:20;99511.94;;;1.38;100.00
7962;BME280;4026;43.652;24.906;2023-01-29T05:07:47;99513.94;;;1.27;100.00
7962;BME280;4026;43.652;24.906;2023-01-29T05:10:17;99520.38;;;1.37;100.00
7962;BME280;4026;43.652;24.906;2023-01-29T05:12:48;99522.19;;;1.32;100.00
7962;BME280;4026;43.652;24.906;2023-01-29T05:15:20;99523.72;;;1.38;100.00
7962;BME280;4026;43.652;24.906;2023-01-29T05:17:48;99521.50;;;1.27;100.00
7962;BME280;4026;43.652;24.906;2023-01-29T05:20:19;99516.72;;;1.47;100.00
7962;BME280;4026;43.652;24.906;2023-01-29T05:22:47;99530.66;;;1.29;100.00
7962;BME280;4026;43.652;24.906;2023-01-29T05:25:22;99529.50;;;1.41;100.00
7962;BME280;4026;43.652;24.906;2023-01-29T05:27:50;99530.47;;;1.37;100.00
7962;BME280;4026;43.652;24.906;2023-01-29T05:30:28;99525.66;;;1.28;100.00
7962;BME280;4026;43.652;24.906;2023-01-29T05:32:55;99527.25;;;1.32;100.00
7962;BME280;4026;43.652;24.906;2023-01-29T05:35:23;99527.81;;;1.42;100.00
7962;BME280;4026;43.652;24.906;2023-01-29T05:37:50;99531.72;;;1.22;100.00
7962;BME280;4026;43.652;24.906;2023-01-29T05:40:17;99525.06;;;0.87;100.00
7962;BME280;4026;43.652;24.906;2023-01-29T05:42:44;99517.34;;;0.93;100.00
7962;BME280;4026;43.652;24.906;2023-01-29T05:45:11;99523.09;;;0.98;100.00
7962;BME280;4026;43.652;24.906;2023-01-29T05:47:38;99521.28;;;1.03;100.00
7962;BME280;4026;43.652;24.906;2023-01-29T05:50:06;99527.59;;;1.20;100.00
7962;BME280;4026;43.652;24.906;2023-01-29T05:52:34;99530.41;;;1.07;100.00
7962;BME280;4026;43.652;24.906;2023-01-29T05:55:01;99541.03;;;1.19;100.00
7962;BME280;4026;43.652;24.906;2023-01-29T05:57:28;99542.09;;;1.10;100.00
7962;BME280;4026;43.652;24.906;2023-01-29T05:59:55;99543.59;;;1.17;100.00
7962;BME280;4026;43.652;24.906;2023-01-29T06:02:22;99546.88;;;1.19;100.00
7962;BME280;4026;43.652;24.906;2023-01-29T06:04:50;99555.66;;;1.04;100.00
7962;BME280;4026;43.652;24.906;2023-01-29T06:07:17;99551.25;;;1.12;100.00
7962;BME280;4026;43.652;24.906;2023-01-29T06:09:45;99558.34;;;0.98;100.00
7962;BME280;4026;43.652;24.906;2023-01-29T06:12:12;99557.38;;;0.70;100.00
7962;BME280;4026;43.652;24.906;2023-01-29T06:14:39;99555.91;;;0.95;100.00
7962;BME280;4026;43.652;24.906;2023-01-29T06:17:06;99554.97;;;0.99;100.00
7962;BME280;4026;43.652;24.906;2023-01-29T06:19:33;99556.28;;;1.12;100.00
7962;BME280;4026;43.652;24.906;2023-01-29T06:21:59;99562.31;;;1.07;100.00
7962;BME280;4026;43.652;24.906;2023-01-29T06:24:26;99564.66;;;1.15;100.00
7962;BME280;4026;43.652;24.906;2023-01-29T06:26:54;99571.06;;;1.25;100.00
7962;BME280;4026;43.652;24.906;2023-01-29T06:29:21;99578.03;;;1.17;100.00
7962;BME280;4026;43.652;24.906;2023-01-29T06:31:48;99574.38;;;1.27;100.00
7962;BME280;4026;43.652;24.906;2023-01-29T06:34:15;99575.91;;;1.34;100.00
7962;BME280;4026;43.652;24.906;2023-01-29T06:36:42;99578.53;;;1.28;100.00
7962;BME280;4026;43.652;24.906;2023-01-29T06:39:09;99573.69;;;0.89;100.00
7962;BME280;4026;43.652;24.906;2023-01-29T06:41:37;99577.50;;;1.04;100.00
7962;BME280;4026;43.652;24.906;2023-01-29T06:44:05;99576.34;;;1.16;100.00
7962;BME280;4026;43.652;24.906;2023-01-29T06:46:32;99586.19;;;1.25;100.00
7962;BME280;4026;43.652;24.906;2023-01-29T06:48:59;99594.47;;;1.30;100.00
7962;BME280;4026;43.652;24.906;2023-01-29T06:51:27;99596.25;;;1.25;100.00
7962;BME280;4026;43.652;24.906;2023-01-29T06:53:54;99597.25;;;1.19;100.00
7962;BME280;4026;43.652;24.906;2023-01-29T06:56:21;99606.50;;;1.19;100.00
7962;BME280;4026;43.652;24.906;2023-01-29T06:58:48;99599.97;;;1.11;100.00
7962;BME280;4026;43.652;24.906;2023-01-29T07:01:16;99601.78;;;1.06;100.00
7962;BME280;4026;43.652;24.906;2023-01-29T07:03:43;99606.66;;;1.12;100.00
7962;BME280;4026;43.652;24.906;2023-01-29T07:06:10;99604.94;;;0.80;100.00
7962;BME280;4026;43.652;24.906;2023-01-29T07:08:37;99599.97;;;0.79;100.00
7962;BME280;4026;43.652;24.906;2023-01-29T07:11:05;99611.41;;;0.90;100.00
7962;BME280;4026;43.652;24.906;2023-01-29T07:13:32;99612.94;;;0.60;100.00
7962;BME280;4026;43.652;24.906;2023-01-29T07:15:59;99604.03;;;0.83;100.00
7962;BME280;4026;43.652;24.906;2023-01-29T07:18:29;99607.19;;;0.91;100.00
7962;BME280;4026;43.652;24.906;2023-01-29T07:20:56;99606.78;;;0.74;100.00
7962;BME280;4026;43.652;24.906;2023-01-29T07:23:24;99617.75;;;0.70;100.00
7962;BME280;4026;43.652;24.906;2023-01-29T07:25:50;99606.97;;;1.00;100.00
7962;BME280;4026;43.652;24.906;2023-01-29T07:28:18;99616.50;;;1.22;100.00
7962;BME280;4026;43.652;24.906;2023-01-29T07:30:45;99618.84;;;1.28;100.00
7962;BME280;4026;43.652;24.906;2023-01-29T07:33:15;99619.09;;;1.19;100.00
7962;BME280;4026;43.652;24.906;2023-01-29T07:35:43;99618.00;;;1.29;100.00
7962;BME280;4026;43.652;24.906;2023-01-29T07:38:10;99623.63;;;1.39;100.00
7962;BME280;4026;43.652;24.906;2023-01-29T07:40:37;99625.94;;;1.46;100.00
7962;BME280;4026;43.652;24.906;2023-01-29T07:43:05;99627.78;;;1.72;100.00
7962;BME280;4026;43.652;24.906;2023-01-29T07:45:34;99629.03;;;1.56;100.00
7962;BME280;4026;43.652;24.906;2023-01-29T07:48:02;99625.00;;;1.50;100.00
7962;BME280;4026;43.652;24.906;2023-01-29T07:50:30;99633.09;;;1.62;100.00
7962;BME280;4026;43.652;24.906;2023-01-29T07:52:58;99634.28;;;1.48;100.00
7962;BME280;4026;43.652;24.906;2023-01-29T07:55:25;99637.16;;;1.66;100.00
7962;BME280;4026;43.652;24.906;2023-01-29T07:57:54;99644.44;;;1.76;100.00
7962;BME280;4026;43.652;24.906;2023-01-29T08:00:21;99647.25;;;1.66;100.00
7962;BME280;4026;43.652;24.906;2023-01-29T08:02:48;99651.66;;;1.90;100.00
7962;BME280;4026;43.652;24.906;2023-01-29T08:05:15;99650.41;;;2.03;100.00
7962;BME280;4026;43.652;24.906;2023-01-29T08:07:42;99654.81;;;1.97;100.00
7962;BME280;4026;43.652;24.906;2023-01-29T08:10:10;99656.88;;;1.83;100.00
7962;BME280;4026;43.652;24.906;2023-01-29T08:12:37;99651.72;;;1.87;100.00
7962;BME280;4026;43.652;24.906;2023-01-29T08:15:05;99659.47;;;1.81;100.00
7962;BME280;4026;43.652;24.906;2023-01-29T08:17:32;99665.69;;;1.99;100.00
7962;BME280;4026;43.652;24.906;2023-01-29T08:19:58;99672.63;;;2.22;100.00
7962;BME280;4026;43.652;24.906;2023-01-29T08:22:25;99668.41;;;2.21;100.00
7962;BME280;4026;43.652;24.906;2023-01-29T08:24:52;99667.72;;;2.45;100.00
7962;BME280;4026;43.652;24.906;2023-01-29T08:27:20;99672.25;;;2.34;100.00
7962;BME280;4026;43.652;24.906;2023-01-29T08:29:47;99678.75;;;2.41;100.00
7962;BME280;4026;43.652;24.906;2023-01-29T08:32:14;99675.84;;;2.27;100.00
7962;BME280;4026;43.652;24.906;2023-01-29T08:34:41;99687.72;;;2.52;100.00
7962;BME280;4026;43.652;24.906;2023-01-29T08:37:08;99682.34;;;2.34;100.00
7962;BME280;4026;43.652;24.906;2023-01-29T08:39:35;99688.97;;;2.66;100.00
7962;BME280;4026;43.652;24.906;2023-01-29T08:42:02;99689.78;;;2.67;100.00
7962;BME280;4026;43.652;24.906;2023-01-29T08:44:30;99689.91;;;2.90;100.00
7962;BME280;4026;43.652;24.906;2023-01-29T08:46:57;99684.28;;;3.09;100.00
7962;BME280;4026;43.652;24.906;2023-01-29T08:49:24;99681.19;;;3.01;100.00
7962;BME280;4026;43.652;24.906;2023-01-29T08:51:51;99690.97;;;3.10;100.00
7962;BME280;4026;43.652;24.906;2023-01-29T08:54:18;99691.47;;;3.21;100.00
7962;BME280;4026;43.652;24.906;2023-01-29T08:56:45;99696.81;;;3.12;100.00
7962;BME280;4026;43.652;24.906;2023-01-29T08:59:11;99694.78;;;3.23;100.00
7962;BME280;4026;43.652;24.906;2023-01-29T09:01:40;99691.16;;;3.30;100.00
7962;BME280;4026;43.652;24.906;2023-01-29T09:04:07;99698.44;;;3.39;100.00
7962;BME280;4026;43.652;24.906;2023-01-29T09:06:34;99694.22;;;3.40;100.00
7962;BME280;4026;43.652;24.906;2023-01-29T09:09:00;99689.91;;;3.44;100.00
7962;BME280;4026;43.652;24.906;2023-01-29T09:11:27;99691.88;;;3.34;100.00
7962;BME280;4026;43.652;24.906;2023-01-29T09:13:54;99689.91;;;3.44;100.00
7962;BME280;4026;43.652;24.906;2023-01-29T09:16:21;99695.09;;;3.64;100.00
7962;BME280;4026;43.652;24.906;2023-01-29T09:18:49;99694.44;;;3.59;100.00
7962;BME280;4026;43.652;24.906;2023-01-29T09:21:16;99691.78;;;3.62;100.00
7962;BME280;4026;43.652;24.906;2023-01-29T09:23:43;99699.94;;;3.70;100.00
7962;BME280;4026;43.652;24.906;2023-01-29T09:26:10;99688.50;;;3.83;100.00
7962;BME280;4026;43.652;24.906;2023-01-29T09:28:37;99687.75;;;3.81;100.00
7962;BME280;4026;43.652;24.906;2023-01-29T09:31:03;99683.09;;;3.69;100.00
7962;BME280;4026;43.652;24.906;2023-01-29T09:33:30;99682.19;;;3.72;100.00
7962;BME280;4026;43.652;24.906;2023-01-29T09:36:01;99675.59;;;3.43;100.00
7962;BME280;4026;43.652;24.906;2023-01-29T09:38:28;99678.69;;;3.51;100.00
7962;BME280;4026;43.652;24.906;2023-01-29T09:41:01;99670.09;;;3.80;100.00
7962;BME280;4026;43.652;24.906;2023-01-29T09:43:39;99672.81;;;3.75;100.00
7962;BME280;4026;43.652;24.906;2023-01-29T09:46:16;99670.50;;;3.93;100.00
7962;BME280;4026;43.652;24.906;2023-01-29T09:48:45;99669.06;;;3.85;100.00
7962;BME280;4026;43.652;24.906;2023-01-29T09:51:22;99669.25;;;4.04;100.00
7962;BME280;4026;43.652;24.906;2023-01-29T09:53:56;99671.13;;;4.21;100.00
7962;BME280;4026;43.652;24.906;2023-01-29T09:56:25;99671.88;;;4.25;100.00
7962;BME280;4026;43.652;24.906;2023-01-29T09:58:56;99671.75;;;4.28;100.00
7962;BME280;4026;43.652;24.906;2023-01-29T10:01:28;99661.88;;;4.44;100.00
7962;BME280;4026;43.652;24.906;2023-01-29T10:04:13;99659.53;;;4.61;100.00
7962;BME280;4026;43.652;24.906;2023-01-29T10:07:05;99655.56;;;4.76;100.00
7962;BME280;4026;43.652;24.906;2023-01-29T10:09:56;99651.88;;;4.41;100.00
7962;BME280;4026;43.652;24.906;2023-01-29T10:12:41;99659.25;;;4.23;100.00
7962;BME280;4026;43.652;24.906;2023-01-29T10:15:22;99652.13;;;4.11;100.00
7962;BME280;4026;43.652;24.906;2023-01-29T10:18:03;99652.66;;;3.72;100.00
7962;BME280;4026;43.652;24.906;2023-01-29T10:20:50;99650.78;;;4.01;100.00
7962;BME280;4026;43.652;24.906;2023-01-29T10:23:23;99648.34;;;3.76;100.00
7962;BME280;4026;43.652;24.906;2023-01-29T10:25:52;99642.47;;;3.25;100.00
7962;BME280;4026;43.652;24.906;2023-01-29T10:28:24;99646.59;;;3.53;100.00
7962;BME280;4026;43.652;24.906;2023-01-29T10:30:56;99642.13;;;3.84;100.00
7962;BME280;4026;43.652;24.906;2023-01-29T10:33:29;99637.81;;;3.86;100.00
7962;BME280;4026;43.652;24.906;2023-01-29T10:36:02;99634.88;;;3.75;100.00
7962;BME280;4026;43.652;24.906;2023-01-29T10:38:39;99632.38;;;3.50;100.00
7962;BME280;4026;43.652;24.906;2023-01-29T10:41:20;99631.63;;;2.97;100.00
7962;BME280;4026;43.652;24.906;2023-01-29T10:43:57;99625.25;;;3.36;100.00
7962;BME280;4026;43.652;24.906;2023-01-29T10:46:37;99626.94;;;3.61;100.00
7962;BME280;4026;43.652;24.906;2023-01-29T10:49:17;99624.31;;;3.64;100.00
7962;BME280;4026;43.652;24.906;2023-01-29T10:52:07;99623.41;;;3.89;100.00
7962;BME280;4026;43.652;24.906;2023-01-29T10:54:53;99625.66;;;4.20;100.00
7962;BME280;4026;43.652;24.906;2023-01-29T10:57:45;99618.53;;;4.29;100.00
7962;BME280;4026;43.652;24.906;2023-01-29T11:00:20;99611.22;;;4.00;100.00
7962;BME280;4026;43.652;24.906;2023-01-29T11:02:50;99612.72;;;4.04;100.00
7962;BME280;4026;43.652;24.906;2023-01-29T11:05:20;99602.50;;;4.07;100.00
7962;BME280;4026;43.652;24.906;2023-01-29T11:07:57;99600.38;;;4.18;100.00
7962;BME280;4026;43.652;24.906;2023-01-29T11:10:30;99589.69;;;4.12;100.00
7962;BME280;4026;43.652;24.906;2023-01-29T11:12:58;99585.69;;;4.06;100.00
7962;BME280;4026;43.652;24.906;2023-01-29T11:15:30;99593.66;;;3.95;100.00
7962;BME280;4026;43.652;24.906;2023-01-29T11:18:03;99596.84;;;4.00;100.00
7962;BME280;4026;43.652;24.906;2023-01-29T11:20:31;99594.94;;;3.83;100.00
7962;BME280;4026;43.652;24.906;2023-01-29T11:22:58;99585.72;;;3.82;100.00
7962;BME280;4026;43.652;24.906;2023-01-29T11:25:25;99591.13;;;3.95;100.00
7962;BME280;4026;43.652;24.906;2023-01-29T11:27:56;99583.50;;;3.97;100.00
7962;BME280;4026;43.652;24.906;2023-01-29T11:30:26;99586.38;;;3.64;100.00
7962;BME280;4026;43.652;24.906;2023-01-29T11:33:05;99592.06;;;4.16;100.00
7962;BME280;4026;43.652;24.906;2023-01-29T11:35:34;99585.56;;;4.09;100.00
7962;BME280;4026;43.652;24.906;2023-01-29T11:38:18;99580.50;;;4.09;100.00
7962;BME280;4026;43.652;24.906;2023-01-29T11:40:47;99578.44;;;4.41;100.00
7962;BME280;4026;43.652;24.906;2023-01-29T11:43:20;99577.44;;;4.45;100.00
7962;BME280;4026;43.652;24.906;2023-01-29T11:45:50;99564.06;;;4.63;100.00
7962;BME280;4026;43.652;24.906;2023-01-29T11:48:19;99563.66;;;4.52;100.00
7962;BME280;4026;43.652;24.906;2023-01-29T11:50:55;99575.78;;;4.44;100.00
7962;BME280;4026;43.652;24.906;2023-01-29T11:53:33;99569.25;;;4.38;100.00
7962;BME280;4026;43.652;24.906;2023-01-29T11:56:04;99567.09;;;4.29;100.00
7962;BME280;4026;43.652;24.906;2023-01-29T11:58:34;99567.22;;;4.26;100.00
7962;BME280;4026;43.652;24.906;2023-01-29T12:01:02;99567.50;;;4.18;100.00
7962;BME280;4026;43.652;24.906;2023-01-29T12:03:33;99566.97;;;4.10;100.00
7962;BME280;4026;43.652;24.906;2023-01-29T12:06:04;99562.19;;;4.02;100.00
7962;BME280;4026;43.652;24.906;2023-01-29T12:08:34;99558.16;;;3.75;100.00
7962;BME280;4026;43.652;24.906;2023-01-29T12:11:11;99563.75;;;3.61;100.00
7962;BME280;4026;43.652;24.906;2023-01-29T12:13:41;99562.59;;;3.92;100.00
7962;BME280;4026;43.652;24.906;2023-01-29T12:16:23;99558.44;;;4.13;100.00
7962;BME280;4026;43.652;24.906;2023-01-29T12:18:56;99560.50;;;4.03;100.00
7962;BME280;4026;43.652;24.906;2023-01-29T12:21:33;99561.41;;;3.78;100.00
7962;BME280;4026;43.652;24.906;2023-01-29T12:24:09;99562.06;;;3.60;100.00
7962;BME280;4026;43.652;24.906;2023-01-29T12:26:43;99559.00;;;3.75;100.00
7962;BME280;4026;43.652;24.906;2023-01-29T12:29:30;99551.19;;;3.81;100.00
7962;BME280;4026;43.652;24.906;2023-01-29T12:32:06;99557.81;;;4.07;100.00
7962;BME280;4026;43.652;24.906;2023-01-29T12:34:43;99554.97;;;4.15;100.00
7962;BME280;4026;43.652;24.906;2023-01-29T12:37:18;99546.78;;;4.30;100.00
7962;BME280;4026;43.652;24.906;2023-01-29T12:39:47;99550.97;;;4.31;100.00
7962;BME280;4026;43.652;24.906;2023-01-29T12:42:18;99552.47;;;4.36;100.00
7962;BME280;4026;43.652;24.906;2023-01-29T12:44:50;99549.41;;;4.27;100.00
7962;BME280;4026;43.652;24.906;2023-01-29T12:47:22;99553.00;;;4.44;100.00
7962;BME280;4026;43.652;24.906;2023-01-29T12:49:53;99563.69;;;4.08;100.00
7962;BME280;4026;43.652;24.906;2023-01-29T12:52:27;99568.59;;;4.33;100.00
7962;BME280;4026;43.652;24.906;2023-01-29T12:55:02;99567.41;;;3.76;100.00
7962;BME280;4026;43.652;24.906;2023-01-29T12:57:39;99563.22;;;3.75;100.00
7962;BME280;4026;43.652;24.906;2023-01-29T13:00:12;99554.00;;;3.74;100.00
7962;BME280;4026;43.652;24.906;2023-01-29T13:02:46;99559.63;;;3.80;100.00
7962;BME280;4026;43.652;24.906;2023-01-29T13:05:19;99552.38;;;3.95;100.00
7962;BME280;4026;43.652;24.906;2023-01-29T13:07:53;99561.38;;;3.56;100.00
7962;BME280;4026;43.652;24.906;2023-01-29T13:10:26;99560.22;;;3.42;100.00
7962;BME280;4026;43.652;24.906;2023-01-29T13:12:57;99559.00;;;3.52;100.00
7962;BME280;4026;43.652;24.906;2023-01-29T13:15:29;99565.72;;;3.53;100.00
7962;BME280;4026;43.652;24.906;2023-01-29T13:18:12;99565.50;;;3.59;100.00
7962;BME280;4026;43.652;24.906;2023-01-29T13:20:43;99564.41;;;3.17;100.00
7962;BME280;4026;43.652;24.906;2023-01-29T13:23:19;99561.78;;;3.21;100.00
7962;BME280;4026;43.652;24.906;2023-01-29T13:25:49;99561.22;;;3.12;100.00
7962;BME280;4026;43.652;24.906;2023-01-29T13:28:17;99567.56;;;3.24;100.00
7962;BME280;4026;43.652;24.906;2023-01-29T13:30:46;99568.81;;;3.36;100.00
7962;BME280;4026;43.652;24.906;2023-01-29T13:33:33;99568.13;;;3.32;100.00